sensor_id;sensor_type;location;lat;lon;timestamp;temperature;humidity
11838;DHT22;5978;51.020;6.764;2023-06-04T00:01:21;14.70;99.90
11838;DHT22;5978;51.020;6.764;2023-06-04T00:03:47;14.60;99.90
11838;DHT22;5978;51.020;6.764;2023-06-04T00:06:13;14.50;99.90
11838;DHT22;5978;51.020;6.764;2023-06-04T00:08:38;14.50;99.90
11838;DHT22;5978;51.020;6.764;2023-06-04T00:11:04;14.30;99.90
11838;DHT22;5978;51.020;6.764;2023-06-04T00:13:30;14.20;99.90
11838;DHT22;5978;51.020;6.764;2023-06-04T00:15:56;14.30;99.90
11838;DHT22;5978;51.020;6.764;2023-06-04T00:18:21;14.30;99.90
11838;DHT22;5978;51.020;6.764;2023-06-04T00:20:47;14.20;99.90
11838;DHT22;5978;51.020;6.764;2023-06-04T00:23:12;14.20;99.90
11838;DHT22;5978;51.020;6.764;2023-06-04T00:25:38;14.10;99.90
11838;DHT22;5978;51.020;6.764;2023-06-04T00:28:04;14.10;99.90
11838;DHT22;5978;51.020;6.764;2023-06-04T00:30:29;14.00;99.90
11838;DHT22;5978;51.020;6.764;2023-06-04T00:32:55;14.00;99.90
11838;DHT22;5978;51.020;6.764;2023-06-04T00:35:21;14.00;99.90
11838;DHT22;5978;51.020;6.764;2023-06-04T00:37:47;13.90;99.90
11838;DHT22;5978;51.020;6.764;2023-06-04T00:40:12;13.90;99.90
11838;DHT22;5978;51.020;6.764;2023-06-04T00:42:38;13.90;99.90
11838;DHT22;5978;51.020;6.764;2023-06-04T00:45:05;13.80;99.90
11838;DHT22;5978;51.020;6.764;2023-06-04T00:47:33;13.80;99.90
11838;DHT22;5978;51.020;6.764;2023-06-04T00:49:59;13.70;99.90
11838;DHT22;5978;51.020;6.764;2023-06-04T00:52:25;13.70;99.90
11838;DHT22;5978;51.020;6.764;2023-06-04T00:54:51;13.70;99.90
11838;DHT22;5978;51.020;6.764;2023-06-04T00:57:17;13.60;99.90
11838;DHT22;5978;51.020;6.764;2023-06-04T00:59:43;13.60;99.90
11838;DHT22;5978;51.020;6.764;2023-06-04T01:02:13;13.60;99.90
11838;DHT22;5978;51.020;6.764;2023-06-04T01:05:00;13.60;99.90
11838;DHT22;5978;51.020;6.764;2023-06-04T01:07:28;13.60;99.90
11838;DHT22;5978;51.020;6.764;2023-06-04T01:09:54;13.50;99.90
11838;DHT22;5978;51.020;6.764;2023-06-04T01:12:20;13.50;99.90
11838;DHT22;5978;51.020;6.764;2023-06-04T01:14:45;13.50;99.90
11838;DHT22;5978;51.020;6.764;2023-06-04T01:17:31;13.40;99.90
11838;DHT22;5978;51.020;6.764;2023-06-04T01:20:16;13.40;99.90
11838;DHT22;5978;51.020;6.764;2023-06-04T01:25:29;13.20;99.90
11838;DHT22;5978;51.020;6.764;2023-06-04T01:27:58;13.30;99.90
11838;DHT22;5978;51.020;6.764;2023-06-04T01:30:26;13.20;99.90
11838;DHT22;5978;51.020;6.764;2023-06-04T01:32:55;13.20;99.90
11838;DHT22;5978;51.020;6.764;2023-06-04T01:35:22;13.20;99.90
11838;DHT22;5978;51.020;6.764;2023-06-04T01:37:47;13.20;99.90
11838;DHT22;5978;51.020;6.764;2023-06-04T01:40:14;13.20;99.90
11838;DHT22;5978;51.020;6.764;2023-06-04T01:42:41;13.30;99.90
11838;DHT22;5978;51.020;6.764;2023-06-04T01:45:07;13.30;99.90
11838;DHT22;5978;51.020;6.764;2023-06-04T01:47:33;13.40;99.90
11838;DHT22;5978;51.020;6.764;2023-06-04T01:50:00;13.40;99.90
11838;DHT22;5978;51.020;6.764;2023-06-04T01:52:26;13.30;99.90
11838;DHT22;5978;51.020;6.764;2023-06-04T01:54:52;13.20;99.90
11838;DHT22;5978;51.020;6.764;2023-06-04T01:57:19;13.20;99.90
11838;DHT22;5978;51.020;6.764;2023-06-04T01:59:45;13.20;99.90
11838;DHT22;5978;51.020;6.764;2023-06-04T02:02:12;13.20;99.90
11838;DHT22;5978;51.020;6.764;2023-06-04T02:04:38;13.10;99.90
11838;DHT22;5978;51.020;6.764;2023-06-04T02:07:09;13.10;99.90
11838;DHT22;5978;51.020;6.764;2023-06-04T02:09:36;13.10;99.90
11838;DHT22;5978;51.020;6.764;2023-06-04T02:12:02;13.00;99.90
11838;DHT22;5978;51.020;6.764;2023-06-04T02:14:27;13.00;99.90
11838;DHT22;5978;51.020;6.764;2023-06-04T02:16:53;13.00;99.90
11838;DHT22;5978;51.020;6.764;2023-06-04T02:19:23;13.00;99.90
11838;DHT22;5978;51.020;6.764;2023-06-04T02:21:49;13.10;99.90
11838;DHT22;5978;51.020;6.764;2023-06-04T02:24:14;13.10;99.90
11838;DHT22;5978;51.020;6.764;2023-06-04T02:26:41;13.10;99.90
11838;DHT22;5978;51.020;6.764;2023-06-04T02:29:06;13.10;99.90
11838;DHT22;5978;51.020;6.764;2023-06-04T02:31:32;13.20;99.90
11838;DHT22;5978;51.020;6.764;2023-06-04T02:33:58;13.20;99.90
11838;DHT22;5978;51.020;6.764;2023-06-04T02:36:23;13.20;99.90
11838;DHT22;5978;51.020;6.764;2023-06-04T02:38:49;13.30;99.90
11838;DHT22;5978;51.020;6.764;2023-06-04T02:41:14;13.30;99.90
11838;DHT22;5978;51.020;6.764;2023-06-04T02:43:40;13.20;99.90
11838;DHT22;5978;51.020;6.764;2023-06-04T02:46:06;13.20;99.90
11838;DHT22;5978;51.020;6.764;2023-06-04T02:48:31;13.20;99.90
11838;DHT22;5978;51.020;6.764;2023-06-04T02:50:57;13.10;99.90
11838;DHT22;5978;51.020;6.764;2023-06-04T02:53:23;13.20;99.90
11838;DHT22;5978;51.020;6.764;2023-06-04T02:55:49;13.10;99.90
11838;DHT22;5978;51.020;6.764;2023-06-04T02:58:16;13.10;99.90
11838;DHT22;5978;51.020;6.764;2023-06-04T03:00:42;13.10;99.90
11838;DHT22;5978;51.020;6.764;2023-06-04T03:03:08;13.10;99.90
11838;DHT22;5978;51.020;6.764;2023-06-04T03:05:33;13.10;99.90
11838;DHT22;5978;51.020;6.764;2023-06-04T03:08:01;13.10;99.90
11838;DHT22;5978;51.020;6.764;2023-06-04T03:10:27;13.10;99.90
11838;DHT22;5978;51.020;6.764;2023-06-04T03:12:53;13.10;99.90
11838;DHT22;5978;51.020;6.764;2023-06-04T03:15:19;13.00;99.90
11838;DHT22;5978;51.020;6.764;2023-06-04T03:17:44;13.00;99.90
11838;DHT22;5978;51.020;6.764;2023-06-04T03:20:10;13.00;99.90
11838;DHT22;5978;51.020;6.764;2023-06-04T03:22:36;13.10;99.90
11838;DHT22;5978;51.020;6.764;2023-06-04T03:25:02;13.00;99.90
11838;DHT22;5978;51.020;6.764;2023-06-04T03:27:31;13.00;99.90
11838;DHT22;5978;51.020;6.764;2023-06-04T03:29:57;13.00;99.90
11838;DHT22;5978;51.020;6.764;2023-06-04T03:32:23;13.00;99.90
11838;DHT22;5978;51.020;6.764;2023-06-04T03:34:48;12.90;99.90
11838;DHT22;5978;51.020;6.764;2023-06-04T03:37:14;13.00;99.90
11838;DHT22;5978;51.020;6.764;2023-06-04T03:39:39;12.90;99.90
11838;DHT22;5978;51.020;6.764;2023-06-04T03:42:05;12.90;99.90
11838;DHT22;5978;51.020;6.764;2023-06-04T03:44:31;12.90;99.90
11838;DHT22;5978;51.020;6.764;2023-06-04T03:46:56;12.90;99.90
11838;DHT22;5978;51.020;6.764;2023-06-04T03:49:22;12.90;99.90
11838;DHT22;5978;51.020;6.764;2023-06-04T03:51:48;12.90;99.90
11838;DHT22;5978;51.020;6.764;2023-06-04T03:54:14;13.00;99.90
11838;DHT22;5978;51.020;6.764;2023-06-04T03:56:44;12.90;99.90
11838;DHT22;5978;51.020;6.764;2023-06-04T03:59:10;12.90;99.90
11838;DHT22;5978;51.020;6.764;2023-06-04T04:01:36;13.10;99.90
11838;DHT22;5978;51.020;6.764;2023-06-04T04:04:01;13.10;99.90
11838;DHT22;5978;51.020;6.764;2023-06-04T04:06:27;13.10;99.90
11838;DHT22;5978;51.020;6.764;2023-06-04T04:08:53;13.10;99.90
11838;DHT22;5978;51.020;6.764;2023-06-04T04:11:18;13.10;99.90
11838;DHT22;5978;51.020;6.764;2023-06-04T04:13:45;13.10;99.90
11838;DHT22;5978;51.020;6.764;2023-06-04T04:16:11;13.00;99.90
11838;DHT22;5978;51.020;6.764;2023-06-04T04:18:37;13.00;99.90
11838;DHT22;5978;51.020;6.764;2023-06-04T04:21:03;13.00;99.90
11838;DHT22;5978;51.020;6.764;2023-06-04T04:23:30;13.00;99.90
11838;DHT22;5978;51.020;6.764;2023-06-04T04:25:58;13.10;99.90
11838;DHT22;5978;51.020;6.764;2023-06-04T04:28:24;13.10;99.90
11838;DHT22;5978;51.020;6.764;2023-06-04T04:30:54;13.10;99.90
11838;DHT22;5978;51.020;6.764;2023-06-04T04:33:20;13.10;99.90
11838;DHT22;5978;51.020;6.764;2023-06-04T04:35:45;13.20;99.90
11838;DHT22;5978;51.020;6.764;2023-06-04T04:38:11;13.20;99.90
11838;DHT22;5978;51.020;6.764;2023-06-04T04:40:37;13.30;99.90
11838;DHT22;5978;51.020;6.764;2023-06-04T04:43:03;13.40;99.90
11838;DHT22;5978;51.020;6.764;2023-06-04T04:45:29;13.40;99.90
11838;DHT22;5978;51.020;6.764;2023-06-04T04:47:54;13.40;99.90
11838;DHT22;5978;51.020;6.764;2023-06-04T04:50:20;13.50;99.90
11838;DHT22;5978;51.020;6.764;2023-06-04T04:52:46;13.50;99.90
11838;DHT22;5978;51.020;6.764;2023-06-04T04:55:11;13.60;99.90
11838;DHT22;5978;51.020;6.764;2023-06-04T04:57:38;13.70;99.90
11838;DHT22;5978;51.020;6.764;2023-06-04T05:00:05;13.70;99.90
11838;DHT22;5978;51.020;6.764;2023-06-04T05:02:32;13.70;99.90
11838;DHT22;5978;51.020;6.764;2023-06-04T05:04:57;13.80;99.90
11838;DHT22;5978;51.020;6.764;2023-06-04T05:07:23;13.90;99.90
11838;DHT22;5978;51.020;6.764;2023-06-04T05:09:50;13.90;99.90
11838;DHT22;5978;51.020;6.764;2023-06-04T05:12:16;14.00;99.90
11838;DHT22;5978;51.020;6.764;2023-06-04T05:14:41;14.00;99.90
11838;DHT22;5978;51.020;6.764;2023-06-04T05:17:07;14.10;99.90
11838;DHT22;5978;51.020;6.764;2023-06-04T05:19:36;14.20;99.90
11838;DHT22;5978;51.020;6.764;2023-06-04T05:22:03;14.30;99.90
11838;DHT22;5978;51.020;6.764;2023-06-04T05:24:28;14.40;99.90
11838;DHT22;5978;51.020;6.764;2023-06-04T05:26:55;14.50;99.90
11838;DHT22;5978;51.020;6.764;2023-06-04T05:29:22;14.60;99.90
11838;DHT22;5978;51.020;6.764;2023-06-04T05:31:48;14.80;99.90
11838;DHT22;5978;51.020;6.764;2023-06-04T05:34:13;14.90;99.90
11838;DHT22;5978;51.020;6.764;2023-06-04T05:36:42;15.00;99.90
11838;DHT22;5978;51.020;6.764;2023-06-04T05:39:11;15.10;99.90
11838;DHT22;5978;51.020;6.764;2023-06-04T05:41:37;15.20;99.90
11838;DHT22;5978;51.020;6.764;2023-06-04T05:44:03;15.20;99.90
11838;DHT22;5978;51.020;6.764;2023-06-04T05:46:29;15.40;99.90
11838;DHT22;5978;51.020;6.764;2023-06-04T05:48:54;15.50;99.90
11838;DHT22;5978;51.020;6.764;2023-06-04T05:51:20;15.60;99.90
11838;DHT22;5978;51.020;6.764;2023-06-04T05:53:47;15.70;99.90
11838;DHT22;5978;51.020;6.764;2023-06-04T05:56:13;15.70;99.90
11838;DHT22;5978;51.020;6.764;2023-06-04T05:58:39;15.80;99.90
11838;DHT22;5978;51.020;6.764;2023-06-04T06:01:04;15.90;99.90
11838;DHT22;5978;51.020;6.764;2023-06-04T06:03:30;15.90;99.90
11838;DHT22;5978;51.020;6.764;2023-06-04T06:05:57;16.10;99.90
11838;DHT22;5978;51.020;6.764;2023-06-04T06:08:23;16.10;99.90
11838;DHT22;5978;51.020;6.764;2023-06-04T06:10:49;16.30;99.90
11838;DHT22;5978;51.020;6.764;2023-06-04T06:13:15;16.40;99.90
11838;DHT22;5978;51.020;6.764;2023-06-04T06:15:41;16.50;99.90
11838;DHT22;5978;51.020;6.764;2023-06-04T06:18:07;16.50;99.90
11838;DHT22;5978;51.020;6.764;2023-06-04T06:20:33;16.60;99.90
11838;DHT22;5978;51.020;6.764;2023-06-04T06:23:05;16.70;99.90
11838;DHT22;5978;51.020;6.764;2023-06-04T06:25:31;17.00;99.90
11838;DHT22;5978;51.020;6.764;2023-06-04T06:27:57;17.10;99.90
11838;DHT22;5978;51.020;6.764;2023-06-04T06:30:22;17.20;98.90
11838;DHT22;5978;51.020;6.764;2023-06-04T06:32:48;17.30;99.80
11838;DHT22;5978;51.020;6.764;2023-06-04T06:35:17;17.40;99.90
11838;DHT22;5978;51.020;6.764;2023-06-04T06:37:43;17.60;99.80
11838;DHT22;5978;51.020;6.764;2023-06-04T06:40:09;17.60;99.40
11838;DHT22;5978;51.020;6.764;2023-06-04T06:42:35;17.80;96.40
11838;DHT22;5978;51.020;6.764;2023-06-04T06:45:01;18.00;96.10
11838;DHT22;5978;51.020;6.764;2023-06-04T06:47:26;18.10;96.20
11838;DHT22;5978;51.020;6.764;2023-06-04T06:49:52;18.30;97.10
11838;DHT22;5978;51.020;6.764;2023-06-04T06:52:18;18.30;94.80
11838;DHT22;5978;51.020;6.764;2023-06-04T06:54:45;18.40;95.50
11838;DHT22;5978;51.020;6.764;2023-06-04T06:57:11;18.60;94.00
11838;DHT22;5978;51.020;6.764;2023-06-04T06:59:37;18.70;94.30
11838;DHT22;5978;51.020;6.764;2023-06-04T07:02:03;18.90;93.70
11838;DHT22;5978;51.020;6.764;2023-06-04T07:04:29;19.00;93.70
11838;DHT22;5978;51.020;6.764;2023-06-04T07:06:54;19.10;93.30
11838;DHT22;5978;51.020;6.764;2023-06-04T07:09:20;19.20;92.60
11838;DHT22;5978;51.020;6.764;2023-06-04T07:11:46;19.50;93.30
11838;DHT22;5978;51.020;6.764;2023-06-04T07:14:11;19.60;91.30
11838;DHT22;5978;51.020;6.764;2023-06-04T07:16:37;19.70;90.60
11838;DHT22;5978;51.020;6.764;2023-06-04T07:19:03;19.60;89.90
11838;DHT22;5978;51.020;6.764;2023-06-04T07:21:28;19.80;90.00
11838;DHT22;5978;51.020;6.764;2023-06-04T07:23:54;19.90;84.90
11838;DHT22;5978;51.020;6.764;2023-06-04T07:26:19;20.10;83.90
11838;DHT22;5978;51.020;6.764;2023-06-04T07:28:45;20.20;87.20
11838;DHT22;5978;51.020;6.764;2023-06-04T07:31:14;20.40;85.40
11838;DHT22;5978;51.020;6.764;2023-06-04T07:33:40;20.50;81.30
11838;DHT22;5978;51.020;6.764;2023-06-04T07:36:15;20.70;83.30
11838;DHT22;5978;51.020;6.764;2023-06-04T07:38:40;20.90;81.20
11838;DHT22;5978;51.020;6.764;2023-06-04T07:41:06;21.10;79.30
11838;DHT22;5978;51.020;6.764;2023-06-04T07:43:34;21.10;78.70
11838;DHT22;5978;51.020;6.764;2023-06-04T07:46:01;21.30;76.00
11838;DHT22;5978;51.020;6.764;2023-06-04T07:48:27;21.30;73.90
11838;DHT22;5978;51.020;6.764;2023-06-04T07:50:59;21.40;75.40
11838;DHT22;5978;51.020;6.764;2023-06-04T07:53:25;21.50;75.90
11838;DHT22;5978;51.020;6.764;2023-06-04T07:55:52;21.60;72.90
11838;DHT22;5978;51.020;6.764;2023-06-04T07:58:17;21.80;74.50
11838;DHT22;5978;51.020;6.764;2023-06-04T08:00:43;21.80;74.70
11838;DHT22;5978;51.020;6.764;2023-06-04T08:03:09;21.80;73.00
11838;DHT22;5978;51.020;6.764;2023-06-04T08:05:35;22.00;73.10
11838;DHT22;5978;51.020;6.764;2023-06-04T08:08:01;22.00;70.40
11838;DHT22;5978;51.020;6.764;2023-06-04T08:10:27;21.90;73.40
11838;DHT22;5978;51.020;6.764;2023-06-04T08:12:52;22.10;69.90
11838;DHT22;5978;51.020;6.764;2023-06-04T08:15:18;22.10;70.40
11838;DHT22;5978;51.020;6.764;2023-06-04T08:17:44;22.20;69.00
11838;DHT22;5978;51.020;6.764;2023-06-04T08:20:10;22.40;68.50
11838;DHT22;5978;51.020;6.764;2023-06-04T08:22:35;22.50;66.10
11838;DHT22;5978;51.020;6.764;2023-06-04T08:25:01;22.70;67.10
11838;DHT22;5978;51.020;6.764;2023-06-04T08:27:26;22.90;68.10
11838;DHT22;5978;51.020;6.764;2023-06-04T08:29:52;22.80;63.40
11838;DHT22;5978;51.020;6.764;2023-06-04T08:32:18;22.70;62.60
11838;DHT22;5978;51.020;6.764;2023-06-04T08:34:43;22.80;65.30
11838;DHT22;5978;51.020;6.764;2023-06-04T08:37:09;23.00;64.10
11838;DHT22;5978;51.020;6.764;2023-06-04T08:39:35;23.20;61.70
11838;DHT22;5978;51.020;6.764;2023-06-04T08:42:04;23.00;62.80
11838;DHT22;5978;51.020;6.764;2023-06-04T08:44:31;23.20;62.30
11838;DHT22;5978;51.020;6.764;2023-06-04T08:47:03;23.40;64.30
11838;DHT22;5978;51.020;6.764;2023-06-04T08:49:33;23.50;62.30
11838;DHT22;5978;51.020;6.764;2023-06-04T08:52:00;23.80;61.90
11838;DHT22;5978;51.020;6.764;2023-06-04T08:54:26;24.00;58.20
11838;DHT22;5978;51.020;6.764;2023-06-04T08:56:52;24.10;58.40
11838;DHT22;5978;51.020;6.764;2023-06-04T08:59:21;24.20;58.20
11838;DHT22;5978;51.020;6.764;2023-06-04T09:01:48;24.20;55.60
11838;DHT22;5978;51.020;6.764;2023-06-04T09:04:14;24.40;54.60
11838;DHT22;5978;51.020;6.764;2023-06-04T09:06:42;24.50;54.30
11838;DHT22;5978;51.020;6.764;2023-06-04T09:09:09;24.60;54.40
11838;DHT22;5978;51.020;6.764;2023-06-04T09:11:38;24.50;54.40
11838;DHT22;5978;51.020;6.764;2023-06-04T09:14:07;24.50;54.10
11838;DHT22;5978;51.020;6.764;2023-06-04T09:16:43;24.80;54.30
11838;DHT22;5978;51.020;6.764;2023-06-04T09:19:09;24.50;53.40
11838;DHT22;5978;51.020;6.764;2023-06-04T09:21:49;24.50;52.60
11838;DHT22;5978;51.020;6.764;2023-06-04T09:24:15;24.60;52.50
11838;DHT22;5978;51.020;6.764;2023-06-04T09:26:41;24.60;51.40
11838;DHT22;5978;51.020;6.764;2023-06-04T09:29:06;24.90;51.10
11838;DHT22;5978;51.020;6.764;2023-06-04T09:31:32;24.80;50.60
11838;DHT22;5978;51.020;6.764;2023-06-04T09:34:03;25.00;51.70
11838;DHT22;5978;51.020;6.764;2023-06-04T09:36:41;25.10;51.20
11838;DHT22;5978;51.020;6.764;2023-06-04T09:39:16;25.10;51.40
11838;DHT22;5978;51.020;6.764;2023-06-04T09:41:42;25.00;50.30
11838;DHT22;5978;51.020;6.764;2023-06-04T09:44:08;25.00;50.70
11838;DHT22;5978;51.020;6.764;2023-06-04T09:46:36;25.10;48.50
11838;DHT22;5978;51.020;6.764;2023-06-04T09:49:03;25.20;49.00
11838;DHT22;5978;51.020;6.764;2023-06-04T09:51:29;25.30;49.50
11838;DHT22;5978;51.020;6.764;2023-06-04T09:54:01;25.50;48.80
11838;DHT22;5978;51.020;6.764;2023-06-04T09:57:00;25.40;47.90
11838;DHT22;5978;51.020;6.764;2023-06-04T09:59:26;25.30;48.80
11838;DHT22;5978;51.020;6.764;2023-06-04T10:01:53;25.30;47.40
11838;DHT22;5978;51.020;6.764;2023-06-04T10:04:22;25.40;48.60
11838;DHT22;5978;51.020;6.764;2023-06-04T10:06:48;25.40;47.50
11838;DHT22;5978;51.020;6.764;2023-06-04T10:09:14;25.20;46.90
11838;DHT22;5978;51.020;6.764;2023-06-04T10:11:51;25.40;46.80
11838;DHT22;5978;51.020;6.764;2023-06-04T10:14:41;25.80;47.50
11838;DHT22;5978;51.020;6.764;2023-06-04T10:17:12;25.80;46.50
11838;DHT22;5978;51.020;6.764;2023-06-04T10:19:42;25.60;47.20
11838;DHT22;5978;51.020;6.764;2023-06-04T10:22:09;25.30;45.90
11838;DHT22;5978;51.020;6.764;2023-06-04T10:24:37;25.40;46.70
11838;DHT22;5978;51.020;6.764;2023-06-04T10:27:03;25.50;46.70
11838;DHT22;5978;51.020;6.764;2023-06-04T10:29:36;25.60;46.50
11838;DHT22;5978;51.020;6.764;2023-06-04T10:32:02;25.90;47.70
11838;DHT22;5978;51.020;6.764;2023-06-04T10:34:28;26.00;47.60
11838;DHT22;5978;51.020;6.764;2023-06-04T10:36:53;26.10;46.10
11838;DHT22;5978;51.020;6.764;2023-06-04T10:39:26;25.90;45.40
11838;DHT22;5978;51.020;6.764;2023-06-04T10:42:02;26.00;45.90
11838;DHT22;5978;51.020;6.764;2023-06-04T10:44:42;25.90;45.80
11838;DHT22;5978;51.020;6.764;2023-06-04T10:47:27;25.90;44.70
11838;DHT22;5978;51.020;6.764;2023-06-04T10:50:10;26.10;46.40
11838;DHT22;5978;51.020;6.764;2023-06-04T10:52:36;26.20;45.30
11838;DHT22;5978;51.020;6.764;2023-06-04T10:55:06;26.30;45.60
11838;DHT22;5978;51.020;6.764;2023-06-04T10:57:32;25.90;44.60
11838;DHT22;5978;51.020;6.764;2023-06-04T10:59:59;26.20;44.70
11838;DHT22;5978;51.020;6.764;2023-06-04T11:02:26;26.20;44.00
11838;DHT22;5978;51.020;6.764;2023-06-04T11:05:05;26.60;44.10
11838;DHT22;5978;51.020;6.764;2023-06-04T11:07:42;26.90;43.00
11838;DHT22;5978;51.020;6.764;2023-06-04T11:10:12;27.40;43.80
11838;DHT22;5978;51.020;6.764;2023-06-04T11:12:47;27.90;43.20
11838;DHT22;5978;51.020;6.764;2023-06-04T11:15:16;27.80;42.00
11838;DHT22;5978;51.020;6.764;2023-06-04T11:17:50;27.70;41.70
11838;DHT22;5978;51.020;6.764;2023-06-04T11:20:17;27.60;41.70
11838;DHT22;5978;51.020;6.764;2023-06-04T11:22:56;27.90;41.80
11838;DHT22;5978;51.020;6.764;2023-06-04T11:25:26;28.40;40.20
11838;DHT22;5978;51.020;6.764;2023-06-04T11:27:53;28.60;40.00
11838;DHT22;5978;51.020;6.764;2023-06-04T11:30:19;29.30;40.40
11838;DHT22;5978;51.020;6.764;2023-06-04T11:32:46;29.50;40.20
11838;DHT22;5978;51.020;6.764;2023-06-04T11:35:12;29.30;39.80
11838;DHT22;5978;51.020;6.764;2023-06-04T11:37:38;30.00;41.60
11838;DHT22;5978;51.020;6.764;2023-06-04T11:40:24;30.70;41.20
11838;DHT22;5978;51.020;6.764;2023-06-04T11:42:52;31.00;39.30
11838;DHT22;5978;51.020;6.764;2023-06-04T11:45:19;31.00;39.90
11838;DHT22;5978;51.020;6.764;2023-06-04T11:47:47;30.30;38.10
11838;DHT22;5978;51.020;6.764;2023-06-04T11:50:13;30.40;37.70
11838;DHT22;5978;51.020;6.764;2023-06-04T11:52:40;30.60;38.40
11838;DHT22;5978;51.020;6.764;2023-06-04T11:55:12;31.50;38.60
11838;DHT22;5978;51.020;6.764;2023-06-04T11:58:00;32.00;37.70
11838;DHT22;5978;51.020;6.764;2023-06-04T12:00:26;32.10;36.60
11838;DHT22;5978;51.020;6.764;2023-06-04T12:02:55;31.30;36.70
11838;DHT22;5978;51.020;6.764;2023-06-04T12:05:58;31.30;36.80
11838;DHT22;5978;51.020;6.764;2023-06-04T12:08:24;31.80;38.20
11838;DHT22;5978;51.020;6.764;2023-06-04T12:10:49;32.50;38.30
11838;DHT22;5978;51.020;6.764;2023-06-04T12:13:16;33.30;38.60
11838;DHT22;5978;51.020;6.764;2023-06-04T12:15:41;33.80;38.70
11838;DHT22;5978;51.020;6.764;2023-06-04T12:18:07;33.20;36.20
11838;DHT22;5978;51.020;6.764;2023-06-04T12:20:36;33.20;37.10
11838;DHT22;5978;51.020;6.764;2023-06-04T12:23:05;34.10;38.40
11838;DHT22;5978;51.020;6.764;2023-06-04T12:25:32;34.80;36.90
11838;DHT22;5978;51.020;6.764;2023-06-04T12:27:58;34.00;37.00
11838;DHT22;5978;51.020;6.764;2023-06-04T12:30:36;34.30;37.50
11838;DHT22;5978;51.020;6.764;2023-06-04T12:33:02;34.20;36.70
11838;DHT22;5978;51.020;6.764;2023-06-04T12:35:28;34.30;37.20
11838;DHT22;5978;51.020;6.764;2023-06-04T12:37:53;35.00;37.10
11838;DHT22;5978;51.020;6.764;2023-06-04T12:40:19;35.20;37.20
11838;DHT22;5978;51.020;6.764;2023-06-04T12:42:45;33.60;36.50
11838;DHT22;5978;51.020;6.764;2023-06-04T12:45:12;34.20;37.50
11838;DHT22;5978;51.020;6.764;2023-06-04T12:47:39;34.70;36.90
11838;DHT22;5978;51.020;6.764;2023-06-04T12:50:06;35.30;36.60
11838;DHT22;5978;51.020;6.764;2023-06-04T12:52:31;35.80;36.80
11838;DHT22;5978;51.020;6.764;2023-06-04T12:54:57;35.30;35.90
11838;DHT22;5978;51.020;6.764;2023-06-04T12:57:23;35.70;36.80
11838;DHT22;5978;51.020;6.764;2023-06-04T12:59:49;36.50;36.40
11838;DHT22;5978;51.020;6.764;2023-06-04T13:02:15;36.90;36.00
11838;DHT22;5978;51.020;6.764;2023-06-04T13:04:40;36.00;35.40
11838;DHT22;5978;51.020;6.764;2023-06-04T13:07:08;36.00;35.50
11838;DHT22;5978;51.020;6.764;2023-06-04T13:09:33;36.30;35.20
11838;DHT22;5978;51.020;6.764;2023-06-04T13:12:00;36.50;35.20
11838;DHT22;5978;51.020;6.764;2023-06-04T13:14:26;36.70;35.30
11838;DHT22;5978;51.020;6.764;2023-06-04T13:16:51;36.30;35.30
11838;DHT22;5978;51.020;6.764;2023-06-04T13:19:17;36.90;35.40
11838;DHT22;5978;51.020;6.764;2023-06-04T13:21:45;36.70;34.50
11838;DHT22;5978;51.020;6.764;2023-06-04T13:24:11;35.70;35.00
11838;DHT22;5978;51.020;6.764;2023-06-04T13:26:37;35.60;36.10
11838;DHT22;5978;51.020;6.764;2023-06-04T13:29:04;36.00;35.70
11838;DHT22;5978;51.020;6.764;2023-06-04T13:31:30;36.60;35.90
11838;DHT22;5978;51.020;6.764;2023-06-04T13:33:55;36.50;34.60
11838;DHT22;5978;51.020;6.764;2023-06-04T13:36:21;36.30;34.60
11838;DHT22;5978;51.020;6.764;2023-06-04T13:38:46;37.00;34.60
11838;DHT22;5978;51.020;6.764;2023-06-04T13:41:12;37.90;34.70
11838;DHT22;5978;51.020;6.764;2023-06-04T13:43:38;38.40;33.60
11838;DHT22;5978;51.020;6.764;2023-06-04T13:46:04;39.10;34.10
11838;DHT22;5978;51.020;6.764;2023-06-04T13:48:30;39.90;33.00
11838;DHT22;5978;51.020;6.764;2023-06-04T13:50:56;39.60;32.60
11838;DHT22;5978;51.020;6.764;2023-06-04T13:53:22;37.80;32.40
11838;DHT22;5978;51.020;6.764;2023-06-04T13:55:47;37.40;32.80
11838;DHT22;5978;51.020;6.764;2023-06-04T13:58:13;37.50;33.50
11838;DHT22;5978;51.020;6.764;2023-06-04T14:00:40;38.40;33.10
11838;DHT22;5978;51.020;6.764;2023-06-04T14:03:06;38.20;33.40
11838;DHT22;5978;51.020;6.764;2023-06-04T14:05:31;39.20;33.10
11838;DHT22;5978;51.020;6.764;2023-06-04T14:07:57;39.10;32.60
11838;DHT22;5978;51.020;6.764;2023-06-04T14:10:23;38.30;32.10
11838;DHT22;5978;51.020;6.764;2023-06-04T14:12:49;37.80;32.80
11838;DHT22;5978;51.020;6.764;2023-06-04T14:15:15;38.00;33.50
11838;DHT22;5978;51.020;6.764;2023-06-04T14:17:41;38.40;32.90
11838;DHT22;5978;51.020;6.764;2023-06-04T14:20:07;38.70;32.50
11838;DHT22;5978;51.020;6.764;2023-06-04T14:22:34;38.00;32.70
11838;DHT22;5978;51.020;6.764;2023-06-04T14:25:02;37.10;33.10
11838;DHT22;5978;51.020;6.764;2023-06-04T14:27:27;35.70;32.90
11838;DHT22;5978;51.020;6.764;2023-06-04T14:29:53;36.60;34.50
11838;DHT22;5978;51.020;6.764;2023-06-04T14:32:19;37.30;33.50
11838;DHT22;5978;51.020;6.764;2023-06-04T14:34:44;37.40;33.80
11838;DHT22;5978;51.020;6.764;2023-06-04T14:37:10;37.30;33.30
11838;DHT22;5978;51.020;6.764;2023-06-04T14:39:35;37.30;33.20
11838;DHT22;5978;51.020;6.764;2023-06-04T14:42:02;37.90;33.30
11838;DHT22;5978;51.020;6.764;2023-06-04T14:44:28;38.00;33.00
11838;DHT22;5978;51.020;6.764;2023-06-04T14:46:53;37.90;32.80
11838;DHT22;5978;51.020;6.764;2023-06-04T14:49:19;38.20;32.60
11838;DHT22;5978;51.020;6.764;2023-06-04T14:51:45;38.80;32.70
11838;DHT22;5978;51.020;6.764;2023-06-04T14:54:11;39.00;32.20
11838;DHT22;5978;51.020;6.764;2023-06-04T14:56:37;38.90;31.90
11838;DHT22;5978;51.020;6.764;2023-06-04T14:59:02;38.90;32.10
11838;DHT22;5978;51.020;6.764;2023-06-04T15:01:34;38.80;32.20
11838;DHT22;5978;51.020;6.764;2023-06-04T15:04:00;37.90;32.30
11838;DHT22;5978;51.020;6.764;2023-06-04T15:06:26;37.80;32.90
11838;DHT22;5978;51.020;6.764;2023-06-04T15:08:52;37.50;33.00
11838;DHT22;5978;51.020;6.764;2023-06-04T15:11:18;36.90;33.70
11838;DHT22;5978;51.020;6.764;2023-06-04T15:13:44;36.60;33.90
11838;DHT22;5978;51.020;6.764;2023-06-04T15:16:10;37.00;33.30
11838;DHT22;5978;51.020;6.764;2023-06-04T15:18:35;36.70;33.40
11838;DHT22;5978;51.020;6.764;2023-06-04T15:21:04;37.00;34.00
11838;DHT22;5978;51.020;6.764;2023-06-04T15:23:29;36.90;33.30
11838;DHT22;5978;51.020;6.764;2023-06-04T15:25:55;37.00;33.50
11838;DHT22;5978;51.020;6.764;2023-06-04T15:28:21;37.30;33.80
11838;DHT22;5978;51.020;6.764;2023-06-04T15:30:46;37.10;34.60
11838;DHT22;5978;51.020;6.764;2023-06-04T15:33:12;36.50;34.20
11838;DHT22;5978;51.020;6.764;2023-06-04T15:35:38;36.10;34.40
11838;DHT22;5978;51.020;6.764;2023-06-04T15:38:03;36.20;34.40
11838;DHT22;5978;51.020;6.764;2023-06-04T15:40:29;36.30;34.20
11838;DHT22;5978;51.020;6.764;2023-06-04T15:42:55;34.80;34.00
11838;DHT22;5978;51.020;6.764;2023-06-04T15:45:20;33.30;35.50
11838;DHT22;5978;51.020;6.764;2023-06-04T15:47:50;31.90;36.70